Waubun, MN (56589)

4:44 PM CST on February 22, 2017 (GMT -0600)
East of Syre on 113 | | Change Station

Elev 1207 ft 47.18 °N, 96.19 °W | Updated 11 seconds ago

Overcast
Overcast
33.3 °F
Feels Like 30 °F
N
4.0
Wind Variable Wind from North
Gusts 4.9 mph

Today
High -- | Low -- °F
--% Chance of Precip.
Yesterday
High -- | Low -- °F
Precip. -- in
Pressure 29.74 in
Visibility 3.0 miles
Clouds Overcast 600 ft
Windchill 30 °F
Dew Point 33 °F
Humidity 99%
Rainfall 0.09 in
Snow Depth Not available.
7:16 AM 5:59 PM
Waning Crescent, 14% visible
METAR KDTL 222234Z AUTO 35013G17KT 3SM -SN OVC006 00/00 A2974 RMK AO2
Pressure 29.74 in
Visibility 3.0 miles
Clouds Overcast 600 ft
Windchill 30 °F
Dew Point 33 °F
Humidity 99%
Rainfall 0.09 in
Snow Depth Not available.
7:16 AM 5:59 PM
Waning Crescent, 14% visible
METAR KDTL 222234Z AUTO 35013G17KT 3SM -SN OVC006 00/00 A2974 RMK AO2

Get Your Daily Forecast Email!

Thanks for signing up!

Be on the lookout for a verification email in your inbox.

You'll start receiving the daily forecast at 8 AM.

×

10-Day Weather Forecast

Almanac

Astronomy

Feb. 22, 2017 Rise Set
Actual Time
Civil Twilight
Nautical Twilight
Astronomical Twilight
Moon
Length of Visible Light
Length of Day
Tomorrow will be .
, % of the Moon is Illuminated

Today's Extremes

State Highs State Lows

Community

WunderPhotos

Upload Photos

1,962,540 photos uploaded!

WunderBlog® & News

Nearby

Air Quality

  Air Quality AQ Index Pollutant
Not available.

Snow Depth

Station Depth Elevation

Earthquake Activity

City Distance Mag. Time & Date
Minimum magnitude displayed is 2.5.

Coastal Water Temperatures

Place Temperature

Stations

Nearby Weather Stations

Station Location Temp. Windchill Dew Point Humidity Wind Precip. Elev Updated Type
                   

Watches & Warnings

There are currently no watches in effect.